Orange Beach, AL (36561)

12:20 AM CDT on July 26, 2016 (GMT -0500)
Republic of Brentorious | | Change Station

Elev 23 ft 30.28 °N, 87.56 °W | Updated 32 seconds ago

Scattered Clouds
Scattered Clouds
83.7 °F
Feels Like 92 °F
N
2.9
Wind Variable Wind from SE
Gusts 11.0 mph

Today
High -- | Low -- °F
--% Chance of Precip.
Yesterday
High -- | Low -- °F
Precip. -- in
Pressure 29.96 in
Visibility 10.0 miles
Clouds Scattered Clouds 2100 ft
Heat Index 92 °F
Dew Point 76 °F
Humidity 78%
Rainfall 0.00 in
Snow Depth Not available.
6:05 AM 7:47 PM
Waning Gibbous, 58% visible
METAR KJKA 260515Z AUTO 15005KT 10SM SCT021 28/25 A2996 RMK AO2 T02750250
Pressure 29.96 in
Visibility 10.0 miles
Clouds Scattered Clouds 2100 ft
Heat Index 92 °F
Dew Point 76 °F
Humidity 78%
Rainfall 0.00 in
Snow Depth Not available.
6:05 AM 7:47 PM
Waning Gibbous, 58% visible
METAR KJKA 260515Z AUTO 15005KT 10SM SCT021 28/25 A2996 RMK AO2 T02750250

10-Day Weather Forecast

Almanac

Astronomy

Jul. 26, 2016 Rise Set
Actual Time
Civil Twilight
Nautical Twilight
Astronomical Twilight
Moon
Length of Visible Light
Length of Day
Tomorrow will be .
, % of the Moon is Illuminated

Today's Extremes

State Highs State Lows

Community

WunderPhotos

Upload Photos

1,927,538 photos uploaded!

WunderBlog® & News

Nearby

Air Quality

  Air Quality AQ Index Pollutant
Not available.

Snow Depth

Station Depth Elevation

Earthquake Activity

City Distance Mag. Time & Date
Minimum magnitude displayed is 2.5.

Coastal Water Temperatures

Place Temperature

Stations

Nearby Weather Stations

Station Location Temp. Windchill Dew Point Humidity Wind Precip. Elev Updated Type
                   

Watches & Warnings

There are currently no watches in effect.